Time;durP1;ratioP1;P1;durP2;ratioP2;P2;SDS_P1;SDS_P2;PMS_P1;PMS_P2;Temp;Humidity;BMP_temperature;BMP_pressure;BME280_temperature;BME280_humidity;BME280_pressure;Samples;Min_cycle;Max_cycle;Signal;HPM_P1;HPM_P2
2021/12/03 00:02:49;;;;;;;5.67;1.67;;;-2.10;99.90;;;;;;8442805;28;20250;-64
2021/12/03 00:06:50;;;;;;;4.67;1.27;;;-2.10;99.90;;;;;;8460872;28;20171;-64
2021/12/03 00:10:58;;;;;;;4.17;1.50;;;-2.10;99.90;;;;;;8443810;28;20218;-63
2021/12/03 00:14:59;;;;;;;3.57;1.67;;;-2.10;99.90;;;;;;8443966;28;20249;-63
2021/12/03 00:19:00;;;;;;;3.70;1.60;;;-2.10;99.90;;;;;;8443529;28;20211;-63
2021/12/03 00:23:01;;;;;;;4.13;1.57;;;-2.20;99.90;;;;;;8455695;28;20182;-64
2021/12/03 00:27:04;;;;;;;3.53;1.30;;;-2.20;99.90;;;;;;8457582;28;20184;-64
2021/12/03 00:31:06;;;;;;;5.63;1.53;;;-2.40;99.90;;;;;;8443152;28;20270;-62
2021/12/03 00:35:09;;;;;;;5.97;1.80;;;-2.40;99.90;;;;;;8452460;28;20180;-63
2021/12/03 00:39:10;;;;;;;2.43;1.30;;;-2.50;99.90;;;;;;8444031;28;20296;-64
2021/12/03 00:43:11;;;;;;;2.00;1.43;;;-2.60;99.90;;;;;;8446399;28;20184;-63
2021/12/03 00:47:12;;;;;;;5.33;1.70;;;-2.60;99.90;;;;;;8442186;28;20251;-63
2021/12/03 00:51:13;;;;;;;3.97;1.90;;;-2.50;99.90;;;;;;8460306;28;20274;-65
2021/12/03 00:55:16;;;;;;;4.37;1.40;;;-2.50;99.90;;;;;;8459471;28;20188;-64
2021/12/03 00:59:16;;;;;;;2.43;1.50;;;-2.50;99.90;;;;;;8438577;27;20203;-64
2021/12/03 01:03:17;;;;;;;6.00;1.43;;;-2.60;99.90;;;;;;8455736;28;20302;-64
2021/12/03 01:07:18;;;;;;;6.63;1.50;;;-2.60;99.90;;;;;;8442768;28;20214;-63
2021/12/03 01:11:20;;;;;;;4.83;1.53;;;-2.60;99.90;;;;;;8442139;28;20255;-63
2021/12/03 01:15:28;;;;;;;5.33;2.00;;;-2.60;99.90;;;;;;8459775;28;20197;-62
2021/12/03 01:19:29;;;;;;;5.73;1.67;;;-2.70;99.90;;;;;;8439763;28;20204;-64
2021/12/03 01:23:31;;;;;;;3.17;1.87;;;-2.60;99.90;;;;;;8435756;28;20234;-65
2021/12/03 01:27:32;;;;;;;2.43;1.33;;;-2.60;99.90;;;;;;8437745;28;20190;-63
2021/12/03 01:31:33;;;;;;;6.67;1.53;;;-2.60;99.90;;;;;;8441121;28;20274;-65
2021/12/03 01:35:35;;;;;;;5.50;1.50;;;-2.70;99.90;;;;;;8457892;28;20256;-64
2021/12/03 01:39:36;;;;;;;3.33;1.30;;;-2.60;99.90;;;;;;8455425;28;20208;-65
2021/12/03 01:43:39;;;;;;;3.93;1.67;;;-2.60;99.90;;;;;;8454649;28;20179;-64
2021/12/03 01:47:45;;;;;;;4.90;1.87;;;-2.50;99.90;;;;;;8439395;28;20176;-63
2021/12/03 01:51:46;;;;;;;7.20;1.47;;;-2.50;99.90;;;;;;8436829;28;20270;-63
2021/12/03 01:55:48;;;;;;;4.50;1.47;;;-2.40;99.90;;;;;;8441331;28;20208;-63
2021/12/03 01:59:48;;;;;;;6.63;1.60;;;-2.40;99.90;;;;;;8458029;28;20287;-64
2021/12/03 02:03:55;;;;;;;6.13;1.60;;;-2.50;99.90;;;;;;8437448;28;20232;-63
2021/12/03 02:07:55;;;;;;;2.83;1.57;;;-2.50;99.90;;;;;;8456070;28;20211;-64
2021/12/03 02:11:56;;;;;;;3.13;1.60;;;-2.40;99.90;;;;;;8436879;28;20187;-62
2021/12/03 02:15:57;;;;;;;2.77;1.33;;;-2.50;99.90;;;;;;8436006;28;20183;-66
2021/12/03 02:19:59;;;;;;;4.90;1.67;;;-2.50;99.90;;;;;;8448028;28;20176;-62
2021/12/03 02:24:00;;;;;;;2.30;1.43;;;-2.60;99.90;;;;;;8437412;28;20205;-64
2021/12/03 02:28:01;;;;;;;4.87;1.47;;;-2.70;99.90;;;;;;8436147;28;20183;-65
2021/12/03 02:32:02;;;;;;;2.73;1.40;;;-2.70;99.90;;;;;;8438517;28;20180;-63
2021/12/03 02:36:05;;;;;;;4.40;1.40;;;-2.70;99.90;;;;;;8441715;28;20179;-64
2021/12/03 02:40:07;;;;;;;4.17;1.60;;;-2.70;99.90;;;;;;8437869;28;20255;-64
2021/12/03 02:44:07;;;;;;;3.20;1.53;;;-2.80;99.90;;;;;;8448096;28;20216;-63
2021/12/03 02:48:09;;;;;;;4.00;1.80;;;-2.80;99.90;;;;;;8435578;28;20187;-63
2021/12/03 02:52:10;;;;;;;3.53;1.57;;;-2.90;99.90;;;;;;8428344;28;20184;-64
2021/12/03 02:56:11;;;;;;;2.67;1.30;;;-2.90;99.90;;;;;;8440256;28;20278;-64
2021/12/03 03:00:17;;;;;;;2.63;1.43;;;-3.00;99.90;;;;;;8456475;28;20196;-63
2021/12/03 03:04:17;;;;;;;3.07;1.53;;;-3.00;99.90;;;;;;8440774;28;20213;-64
2021/12/03 03:08:19;;;;;;;3.53;1.20;;;-3.10;99.90;;;;;;8425501;28;20195;-63
2021/12/03 03:12:19;;;;;;;2.57;1.33;;;-3.20;99.90;;;;;;8437034;28;20187;-65
2021/12/03 03:16:20;;;;;;;2.93;1.40;;;-3.30;99.90;;;;;;8435786;28;20297;-64
2021/12/03 03:20:21;;;;;;;2.17;1.33;;;-3.30;99.90;;;;;;8453782;28;20179;-64
2021/12/03 03:24:22;;;;;;;3.87;1.50;;;-3.30;99.90;;;;;;8429015;28;20233;-65
2021/12/03 03:28:24;;;;;;;3.23;1.80;;;-3.30;99.90;;;;;;8453751;28;20187;-64
2021/12/03 03:32:25;;;;;;;8.97;1.77;;;-3.30;99.90;;;;;;8434225;28;20180;-64
2021/12/03 03:36:26;;;;;;;5.00;1.90;;;-3.30;99.90;;;;;;8453920;28;20210;-65
2021/12/03 03:40:28;;;;;;;4.50;1.73;;;-3.30;99.90;;;;;;8435437;28;20176;-65
2021/12/03 03:44:29;;;;;;;3.63;1.50;;;-3.30;99.90;;;;;;8426837;28;20294;-63
2021/12/03 03:48:29;;;;;;;2.37;1.70;;;-3.30;99.90;;;;;;8436496;28;20323;-63
2021/12/03 03:52:31;;;;;;;5.47;1.93;;;-3.30;99.90;;;;;;8433294;28;20242;-64
2021/12/03 03:56:33;;;;;;;6.07;2.10;;;-3.30;99.90;;;;;;8433010;28;20264;-66
2021/12/03 04:00:38;;;;;;;3.30;2.03;;;-3.20;99.90;;;;;;8455552;28;20287;-64
2021/12/03 04:04:38;;;;;;;5.37;2.03;;;-3.20;99.90;;;;;;8451334;28;20270;-63
2021/12/03 04:08:39;;;;;;;4.90;2.37;;;-3.30;99.90;;;;;;8440574;28;20194;-65
2021/12/03 04:12:40;;;;;;;4.83;2.30;;;-3.30;99.90;;;;;;8442974;28;20278;-64
2021/12/03 04:16:41;;;;;;;3.43;1.83;;;-3.30;99.90;;;;;;8458355;28;20222;-66
2021/12/03 04:20:42;;;;;;;7.23;2.77;;;-3.30;99.90;;;;;;8438002;28;20175;-64
2021/12/03 04:24:43;;;;;;;3.77;2.63;;;-3.30;99.90;;;;;;8436364;28;20179;-64
2021/12/03 04:28:45;;;;;;;4.07;2.50;;;-3.30;99.90;;;;;;8441246;28;20215;-63
2021/12/03 04:32:45;;;;;;;4.53;3.17;;;-3.30;99.90;;;;;;8459305;28;20266;-64
2021/12/03 04:36:46;;;;;;;6.57;3.27;;;-3.30;99.90;;;;;;8454992;28;20206;-65
2021/12/03 04:40:47;;;;;;;7.33;3.97;;;-3.30;99.90;;;;;;8458212;28;20209;-65
2021/12/03 04:44:48;;;;;;;5.90;3.13;;;-3.30;99.90;;;;;;8455692;28;20237;-64
2021/12/03 04:48:50;;;;;;;7.60;3.57;;;-3.30;99.90;;;;;;8459611;28;20210;-65
2021/12/03 04:52:51;;;;;;;8.67;3.70;;;-3.30;99.90;;;;;;8436928;28;20270;-64
2021/12/03 04:56:53;;;;;;;7.33;3.83;;;-3.30;99.90;;;;;;8438069;28;20208;-64
2021/12/03 05:00:56;;;;;;;7.97;4.33;;;-3.30;99.90;;;;;;8454991;28;20195;-65
2021/12/03 05:05:01;;;;;;;8.73;4.40;;;-3.30;99.90;;;;;;8442937;27;20206;-63
2021/12/03 05:09:02;;;;;;;7.13;4.20;;;-3.30;99.90;;;;;;8441388;28;20385;-64
2021/12/03 05:13:24;;;;;;;9.33;4.53;;;-3.30;99.90;;;;;;8460098;28;20184;-64
2021/12/03 05:17:25;;;;;;;9.30;4.50;;;-3.20;99.90;;;;;;8439695;28;20299;-64
2021/12/03 05:21:26;;;;;;;7.90;4.93;;;-3.20;99.90;;;;;;8427575;28;20185;-64
2021/12/03 05:25:27;;;;;;;13.67;8.80;;;-3.30;99.90;;;;;;8438278;28;20515;-64
2021/12/03 05:29:28;;;;;;;9.40;5.37;;;-3.20;99.90;;;;;;8441552;28;20187;-64
2021/12/03 05:33:29;;;;;;;6.33;4.43;;;-3.20;99.90;;;;;;8438745;28;20503;-63
2021/12/03 05:37:30;;;;;;;9.77;4.90;;;-3.10;99.90;;;;;;8439772;28;20206;-65
2021/12/03 05:41:32;;;;;;;7.17;4.03;;;-3.10;99.90;;;;;;8440747;28;20199;-64
2021/12/03 05:45:35;;;;;;;8.90;4.10;;;-3.10;99.90;;;;;;8440823;28;20214;-64
2021/12/03 05:49:35;;;;;;;6.37;4.83;;;-3.00;99.90;;;;;;8458666;28;20180;-64
2021/12/03 05:53:36;;;;;;;8.00;3.93;;;-3.00;99.90;;;;;;8452905;28;20449;-63
2021/12/03 05:57:38;;;;;;;8.77;4.47;;;-3.00;99.90;;;;;;8437036;28;20300;-65
2021/12/03 06:01:39;;;;;;;9.20;4.13;;;-3.00;99.90;;;;;;8458979;28;20192;-64
2021/12/03 06:05:40;;;;;;;9.13;4.00;;;-3.00;99.90;;;;;;8440018;28;20199;-65
2021/12/03 06:09:42;;;;;;;5.63;3.80;;;-3.00;99.90;;;;;;8439692;28;20311;-65
2021/12/03 06:13:43;;;;;;;9.80;5.37;;;-3.00;99.90;;;;;;8439703;28;20180;-64
2021/12/03 06:17:44;;;;;;;7.80;4.93;;;-3.00;99.90;;;;;;8439066;28;20214;-64
2021/12/03 06:21:45;;;;;;;11.47;5.53;;;-2.90;99.90;;;;;;8426337;28;20180;-63
2021/12/03 06:25:46;;;;;;;6.27;4.00;;;-2.90;99.90;;;;;;8457903;28;20179;-63
2021/12/03 06:29:47;;;;;;;10.90;4.27;;;-3.00;99.90;;;;;;8438763;28;20197;-64
2021/12/03 06:33:48;;;;;;;9.10;5.00;;;-3.00;99.90;;;;;;8437702;28;20195;-65
2021/12/03 06:37:49;;;;;;;7.97;4.70;;;-3.00;99.90;;;;;;8424809;28;20216;-64
2021/12/03 06:41:50;;;;;;;8.70;4.77;;;-2.90;99.90;;;;;;8436089;28;20175;-64
2021/12/03 06:45:51;;;;;;;7.70;4.87;;;-2.90;99.90;;;;;;8437621;28;20184;-64
2021/12/03 06:49:52;;;;;;;9.93;4.67;;;-2.90;99.90;;;;;;8432362;28;20272;-64
2021/12/03 06:54:04;;;;;;;9.37;3.90;;;-2.80;99.90;;;;;;8430459;28;20187;-64
2021/12/03 06:58:05;;;;;;;8.57;3.60;;;-2.70;99.90;;;;;;8438845;27;20234;-66
2021/12/03 07:02:06;;;;;;;9.17;4.00;;;-2.60;99.90;;;;;;8447104;28;20200;-66
2021/12/03 07:06:06;;;;;;;9.17;4.33;;;-2.40;99.90;;;;;;8431759;28;20280;-66
2021/12/03 07:10:08;;;;;;;7.77;4.47;;;-2.30;99.90;;;;;;8446246;28;20180;-66
2021/12/03 07:14:09;;;;;;;6.03;3.80;;;-2.20;99.90;;;;;;8454583;28;20277;-66
2021/12/03 07:18:10;;;;;;;6.93;4.23;;;-2.20;99.90;;;;;;8438800;28;20199;-67
2021/12/03 07:22:11;;;;;;;9.53;3.87;;;-2.10;99.90;;;;;;8433663;28;20183;-67
2021/12/03 07:26:12;;;;;;;8.40;3.57;;;-2.10;99.90;;;;;;8435222;28;20247;-66
2021/12/03 07:30:15;;;;;;;7.40;3.70;;;-2.00;99.90;;;;;;8434771;28;20180;-67
2021/12/03 07:34:16;;;;;;;7.00;3.47;;;-1.90;99.90;;;;;;8456551;28;20207;-66
2021/12/03 07:38:17;;;;;;;9.10;4.20;;;-1.80;99.90;;;;;;8456080;28;20199;-66
2021/12/03 07:42:18;;;;;;;9.83;4.07;;;-1.80;99.90;;;;;;8439498;28;20187;-66
2021/12/03 07:46:19;;;;;;;9.47;5.30;;;-1.70;99.90;;;;;;8462620;28;20179;-66
2021/12/03 07:50:21;;;;;;;4.73;3.37;;;-1.60;99.90;;;;;;8443630;28;20179;-67
2021/12/03 07:54:23;;;;;;;7.77;4.33;;;-1.40;99.90;;;;;;8435860;28;20167;-66
2021/12/03 07:58:23;;;;;;;8.67;4.27;;;-1.30;99.90;;;;;;8439153;28;20492;-67
2021/12/03 08:02:24;;;;;;;6.33;4.13;;;-1.10;99.90;;;;;;8444201;28;20294;-67
2021/12/03 08:06:25;;;;;;;8.47;4.00;;;-1.00;99.90;;;;;;8444191;28;20177;-67
2021/12/03 08:10:27;;;;;;;7.90;4.67;;;-0.80;99.90;;;;;;8462423;28;20273;-66
2021/12/03 08:14:28;;;;;;;7.93;3.70;;;-0.70;99.90;;;;;;8462871;28;20260;-66
2021/12/03 08:18:29;;;;;;;8.40;3.93;;;-0.60;99.90;;;;;;8439123;28;20213;-66
2021/12/03 08:22:30;;;;;;;6.00;3.30;;;-0.50;99.90;;;;;;8458195;28;20177;-66
2021/12/03 08:26:32;;;;;;;7.17;3.77;;;-0.30;99.90;;;;;;8458939;28;20176;-66
2021/12/03 08:30:33;;;;;;;7.07;3.73;;;-0.20;99.90;;;;;;8454907;27;20235;-68
2021/12/03 08:34:34;;;;;;;6.73;3.70;;;-0.10;99.90;;;;;;8457459;28;20176;-67
2021/12/03 08:38:34;;;;;;;5.13;2.90;;;0.00;99.90;;;;;;8443817;28;20254;-67
2021/12/03 08:42:35;;;;;;;7.37;3.40;;;0.10;99.90;;;;;;8437981;28;20193;-66
2021/12/03 08:46:38;;;;;;;6.97;3.60;;;0.20;99.90;;;;;;8458510;28;20186;-67
2021/12/03 08:50:50;;;;;;;5.77;3.30;;;0.40;99.90;;;;;;8435346;28;20248;-67
2021/12/03 08:54:52;;;;;;;5.70;3.27;;;0.50;99.90;;;;;;8441447;28;20178;-66
2021/12/03 08:58:53;;;;;;;5.80;3.63;;;0.60;99.90;;;;;;8459298;28;20230;-69
2021/12/03 09:02:54;;;;;;;6.23;2.90;;;0.70;99.90;;;;;;8460228;27;20210;-68
2021/12/03 09:06:57;;;;;;;5.90;3.20;;;0.80;99.90;;;;;;8438651;28;20182;-66
2021/12/03 09:10:58;;;;;;;5.27;3.40;;;1.00;99.90;;;;;;8438061;28;20195;-65
2021/12/03 09:15:03;;;;;;;5.30;3.47;;;1.10;99.90;;;;;;8442696;28;20263;-67
2021/12/03 09:19:09;;;;;;;6.47;3.60;;;1.20;99.90;;;;;;8451534;28;20620;-67
2021/12/03 09:23:28;;;;;;;4.93;2.80;;;1.30;99.90;;;;;;8441602;28;20506;-67
2021/12/03 09:27:29;;;;;;;4.47;2.73;;;1.40;99.90;;;;;;8434779;28;20190;-66
2021/12/03 09:31:32;;;;;;;4.27;2.47;;;1.50;99.90;;;;;;8446157;28;20184;-68
2021/12/03 09:35:36;;;;;;;4.70;2.70;;;1.60;99.90;;;;;;8460958;28;20275;-67
2021/12/03 09:39:40;;;;;;;4.47;2.83;;;1.70;99.90;;;;;;8440248;28;20216;-66
2021/12/03 09:43:45;;;;;;;4.70;2.43;;;1.80;99.90;;;;;;8433600;28;20175;-65
2021/12/03 09:47:47;;;;;;;2.20;1.70;;;1.90;99.90;;;;;;8440899;28;20187;-68
2021/12/03 09:55:52;;;;;;;2.67;2.00;;;2.20;99.90;;;;;;8458302;28;20204;-66
2021/12/03 10:13:26;;;;;;;3.63;2.07;;;2.60;99.90;;;;;;8457876;28;20211;-68
2021/12/03 10:43:11;;;;;;;2.43;1.67;;;3.00;99.90;;;;;;8458167;28;20176;-68
2021/12/03 10:47:42;;;;;;;2.70;1.80;;;3.10;99.90;;;;;;8449605;28;20172;-67
2021/12/03 10:51:55;;;;;;;3.80;1.87;;;3.30;99.90;;;;;;8416958;28;20197;-70
2021/12/03 10:56:24;;;;;;;5.90;2.23;;;3.20;99.90;;;;;;8457375;28;20275;-65
2021/12/03 11:13:22;;;;;;;5.43;1.87;;;3.10;99.90;;;;;;8455297;28;20233;-68
2021/12/03 12:43:26;;;;;;;0.97;0.53;;;3.80;99.90;;;;;;8436002;27;20196;-67
2021/12/03 13:08:45;;;;;;;2.10;0.80;;;3.80;99.90;;;;;;8455523;28;20181;-67
2021/12/03 13:26:40;;;;;;;1.97;1.20;;;3.80;99.90;;;;;;8459145;28;20553;-68
2021/12/03 14:51:45;;;;;;;4.83;2.60;;;1.50;99.90;;;;;;8443496;28;20208;-68
2021/12/03 14:55:54;;;;;;;4.97;2.93;;;1.40;99.90;;;;;;8437564;27;20188;-67
2021/12/03 15:00:08;;;;;;;6.43;2.80;;;1.30;99.90;;;;;;8451778;28;20242;-67
2021/12/03 15:08:42;;;;;;;6.80;3.47;;;1.10;99.90;;;;;;8450530;28;20204;-66
2021/12/03 15:34:04;;;;;;;8.63;3.93;;;0.10;99.90;;;;;;8454491;28;20198;-65
2021/12/03 15:55:50;;;;;;;5.03;2.67;;;-0.20;99.90;;;;;;8456530;28;20277;-64
2021/12/03 16:04:18;;;;;;;4.87;2.53;;;-0.20;99.90;;;;;;8461126;28;20213;-64
2021/12/03 16:08:28;;;;;;;4.37;2.33;;;-0.20;99.90;;;;;;8444392;28;20195;-65
2021/12/03 16:17:05;;;;;;;5.40;2.40;;;-0.20;99.90;;;;;;8456440;28;20183;-63
2021/12/03 16:51:31;;;;;;;3.93;2.43;;;0.20;99.90;;;;;;8441380;28;20187;-62
2021/12/03 16:55:32;;;;;;;3.73;2.33;;;0.20;99.90;;;;;;8457326;28;20187;-65
2021/12/03 16:59:33;;;;;;;4.43;2.30;;;0.20;99.90;;;;;;8450486;28;20287;-65
2021/12/03 17:03:46;;;;;;;5.07;2.47;;;0.20;99.90;;;;;;8430321;27;20209;-65
2021/12/03 17:17:17;;;;;;;3.70;2.40;;;0.30;99.90;;;;;;8458020;28;20186;-65
2021/12/03 17:21:44;;;;;;;3.57;2.63;;;0.20;99.90;;;;;;8443277;28;20196;-63
2021/12/03 17:47:04;;;;;;;4.67;3.00;;;0.50;99.90;;;;;;8459158;28;20271;-65
2021/12/03 18:12:48;;;;;;;3.77;2.40;;;0.30;99.90;;;;;;8435797;28;20213;-64
2021/12/03 19:00:02;;;;;;;5.43;3.17;;;0.10;99.90;;;;;;8447524;28;20281;-64
2021/12/03 19:12:40;;;;;;;4.87;3.43;;;0.40;99.90;;;;;;8465400;27;20194;-65
2021/12/03 19:16:41;;;;;;;6.70;3.13;;;0.30;99.90;;;;;;8439139;28;20244;-64
2021/12/03 19:20:43;;;;;;;4.53;3.23;;;0.30;99.90;;;;;;8436077;28;20197;-63
2021/12/03 19:24:44;;;;;;;3.97;2.83;;;0.20;99.90;;;;;;8438565;28;20207;-64
2021/12/03 19:28:45;;;;;;;5.30;3.30;;;0.10;99.90;;;;;;8438396;28;20347;-64
2021/12/03 19:32:46;;;;;;;5.20;3.80;;;0.00;99.90;;;;;;8438824;28;20186;-64
2021/12/03 19:36:47;;;;;;;5.17;3.47;;;0.00;99.90;;;;;;8438546;28;20186;-65
2021/12/03 19:45:17;;;;;;;4.20;3.30;;;0.00;99.90;;;;;;8454622;28;20223;-66
2021/12/03 19:53:48;;;;;;;5.57;3.57;;;0.00;99.90;;;;;;8449784;28;20247;-65
2021/12/03 19:57:51;;;;;;;4.57;3.47;;;-0.10;99.90;;;;;;8443937;28;20234;-64
2021/12/03 20:01:52;;;;;;;6.67;3.70;;;-0.10;99.90;;;;;;8461529;28;20198;-67
2021/12/03 20:05:53;;;;;;;4.67;3.23;;;-0.10;99.90;;;;;;8442673;28;20300;-64
2021/12/03 20:10:00;;;;;;;4.83;2.97;;;-0.10;99.90;;;;;;8443718;28;20590;-63
2021/12/03 20:14:01;;;;;;;4.53;2.90;;;-0.20;99.90;;;;;;8426924;28;20178;-64
2021/12/03 20:26:52;;;;;;;6.27;3.37;;;-0.50;99.90;;;;;;8461716;28;20176;-64
2021/12/03 20:31:06;;;;;;;7.07;4.00;;;-0.60;99.90;;;;;;8462470;28;20179;-65
2021/12/03 20:35:37;;;;;;;4.50;3.53;;;-0.70;99.90;;;;;;8443414;28;20273;-65
2021/12/03 20:39:41;;;;;;;8.03;3.87;;;-0.80;99.90;;;;;;8440272;28;20213;-65
2021/12/03 21:09:42;;;;;;;5.83;3.63;;;-0.80;99.90;;;;;;8462680;28;20234;-65
2021/12/03 21:13:45;;;;;;;5.87;3.70;;;-0.80;99.90;;;;;;8450812;28;20181;-66
2021/12/03 21:22:29;;;;;;;5.40;3.73;;;-0.70;99.90;;;;;;8410761;28;20189;-65
2021/12/03 21:26:31;;;;;;;7.97;3.83;;;-0.70;99.90;;;;;;8423477;28;20183;-65
2021/12/03 21:30:55;;;;;;;6.60;4.40;;;-0.70;99.90;;;;;;8440858;28;20231;-66
2021/12/03 21:43:41;;;;;;;8.00;4.53;;;-0.80;99.90;;;;;;8441157;28;20234;-65
2021/12/03 21:47:42;;;;;;;5.93;3.50;;;-0.90;99.90;;;;;;8440258;28;20192;-66
2021/12/03 21:51:43;;;;;;;6.87;3.90;;;-1.00;99.90;;;;;;8426463;28;20185;-64
2021/12/03 21:55:46;;;;;;;6.47;3.47;;;-1.00;99.90;;;;;;8439324;28;20181;-63
2021/12/03 21:59:47;;;;;;;6.70;3.60;;;-1.00;99.90;;;;;;8438793;28;20211;-63
2021/12/03 22:03:50;;;;;;;3.83;3.00;;;-0.90;99.90;;;;;;8440133;28;20617;-66
2021/12/03 22:07:51;;;;;;;6.60;3.20;;;-0.90;99.90;;;;;;8438588;28;20182;-65
2021/12/03 22:11:53;;;;;;;6.77;3.23;;;-0.90;99.90;;;;;;8457567;28;20194;-64
2021/12/03 22:15:57;;;;;;;4.43;3.30;;;-0.90;99.90;;;;;;8437881;28;20189;-63
2021/12/03 22:19:58;;;;;;;5.53;3.33;;;-0.90;99.90;;;;;;8456628;28;20200;-63
2021/12/03 22:23:58;;;;;;;5.47;4.40;;;-1.00;99.90;;;;;;8434235;28;20181;-64
2021/12/03 22:27:59;;;;;;;4.40;2.80;;;-1.00;99.90;;;;;;8438032;28;20185;-64
2021/12/03 22:32:02;;;;;;;5.57;2.63;;;-1.10;99.90;;;;;;8439350;28;20192;-65
2021/12/03 22:36:03;;;;;;;5.10;3.30;;;-1.20;99.90;;;;;;8435410;28;20278;-64
2021/12/03 22:40:06;;;;;;;6.07;3.20;;;-1.20;99.90;;;;;;8436848;28;20213;-64
2021/12/03 22:44:07;;;;;;;5.97;3.20;;;-1.00;99.90;;;;;;8437687;28;20196;-64
2021/12/03 22:48:22;;;;;;;5.13;3.20;;;-0.90;99.90;;;;;;8453714;28;20310;-64
2021/12/03 22:52:23;;;;;;;3.83;3.03;;;-0.70;99.90;;;;;;8437546;28;20178;-66
2021/12/03 22:56:24;;;;;;;5.30;3.40;;;-0.50;99.90;;;;;;8451492;28;20185;-64
2021/12/03 23:00:46;;;;;;;4.80;3.63;;;-0.20;99.90;;;;;;8455128;28;20206;-63
2021/12/03 23:04:47;;;;;;;5.13;3.13;;;0.00;99.90;;;;;;8455763;28;20193;-63
2021/12/03 23:08:48;;;;;;;6.50;3.13;;;0.10;99.90;;;;;;8437719;28;20263;-64
2021/12/03 23:12:49;;;;;;;6.73;3.30;;;0.30;99.90;;;;;;8442343;27;20265;-64
2021/12/03 23:16:52;;;;;;;5.23;3.10;;;0.40;99.90;;;;;;8440704;28;20194;-64
2021/12/03 23:20:53;;;;;;;4.70;3.50;;;0.40;99.90;;;;;;8431818;28;20185;-64
2021/12/03 23:24:57;;;;;;;5.07;3.03;;;0.50;99.90;;;;;;8458109;28;20201;-66
2021/12/03 23:28:58;;;;;;;4.23;2.60;;;0.50;99.90;;;;;;8431401;28;20175;-64
2021/12/03 23:33:00;;;;;;;6.43;3.17;;;0.50;99.90;;;;;;8439822;28;20255;-63
2021/12/03 23:37:03;;;;;;;4.90;3.80;;;0.50;99.90;;;;;;8436022;28;20190;-64
2021/12/03 23:41:04;;;;;;;5.37;3.20;;;0.60;99.90;;;;;;8442385;28;20168;-63
2021/12/03 23:45:05;;;;;;;5.70;3.20;;;0.70;99.90;;;;;;8432947;28;20183;-66
2021/12/03 23:49:06;;;;;;;4.93;3.37;;;0.80;99.90;;;;;;8458298;28;20184;-65
2021/12/03 23:53:08;;;;;;;6.07;3.20;;;0.80;99.90;;;;;;8453224;28;20262;-64
2021/12/03 23:57:10;;;;;;;5.23;3.20;;;0.80;99.90;;;;;;8458921;28;20172;-64
